AXM105 WSSS-WMKK
Flight info
| Callsign | AXM105 |
|---|---|
| Flight time | 0h 39m |
| Altitude | 26000 |
| Route | MASBO3A MASBO A457 GUPTA GUPTA3J |
| Aircraft | A320/M-SDE3FGHIRWY/LB1 |
Departure
| Time | 2026-05-06 23:19 |
|---|---|
| Airport | Singapore Changi Airport (WSSS) |
Arrival
| Time | 2026-05-06 23:58 |
|---|---|
| Airport | Kuala Lumpur International Airport (WMKK) |
| Time | Latitude | Longitude | Altitude | Speed | Heading |
|---|---|---|---|---|---|
| 2026-05-06 22:18 | 1.33655 | 103.98400 | 23 ft | 0 kts | 294° |
| 2026-05-06 22:55 | 1.33651 | 103.98409 | 23 ft | 2 kts | 294° |
| 2026-05-06 22:55 | 1.33644 | 103.98425 | 25 ft | 3 kts | 307° |
| 2026-05-06 22:55 | 1.33631 | 103.98437 | 24 ft | 3 kts | 343° |
| 2026-05-06 22:56 | 1.33614 | 103.98439 | 23 ft | 3 kts | 20° |
| 2026-05-06 22:56 | 1.33607 | 103.98437 | 24 ft | 0 kts | 35° |
| 2026-05-06 22:58 | 1.33627 | 103.98447 | 24 ft | 6 kts | 23° |
| 2026-05-06 22:58 | 1.33636 | 103.98450 | 23 ft | 0 kts | 18° |
| 2026-05-06 22:59 | 1.33650 | 103.98464 | 23 ft | 2 kts | 60° |
| 2026-05-06 22:59 | 1.33639 | 103.98521 | 22 ft | 16 kts | 100° |
| 2026-05-06 22:59 | 1.33594 | 103.98592 | 22 ft | 10 kts | 167° |
| 2026-05-06 22:59 | 1.33524 | 103.98580 | 22 ft | 10 kts | 196° |
| 2026-05-06 23:00 | 1.33454 | 103.98557 | 22 ft | 11 kts | 199° |
| 2026-05-06 23:00 | 1.33386 | 103.98527 | 22 ft | 11 kts | 210° |
| 2026-05-06 23:00 | 1.33322 | 103.98489 | 22 ft | 11 kts | 210° |
| 2026-05-06 23:00 | 1.33257 | 103.98453 | 22 ft | 11 kts | 208° |
| 2026-05-06 23:01 | 1.33189 | 103.98423 | 24 ft | 10 kts | 200° |
| 2026-05-06 23:01 | 1.33132 | 103.98405 | 24 ft | 7 kts | 194° |
| 2026-05-06 23:01 | 1.33102 | 103.98403 | 22 ft | 2 kts | 177° |
| 2026-05-06 23:01 | 1.33655 | 103.98400 | 24 ft | 0 kts | 294° |
| 2026-05-06 23:09 | 1.33649 | 103.98414 | 23 ft | 2 kts | 294° |
| 2026-05-06 23:09 | 1.33642 | 103.98430 | 24 ft | 2 kts | 294° |
| 2026-05-06 23:10 | 1.33635 | 103.98445 | 26 ft | 2 kts | 294° |
| 2026-05-06 23:10 | 1.33628 | 103.98461 | 25 ft | 2 kts | 294° |
| 2026-05-06 23:10 | 1.33626 | 103.98466 | 24 ft | 0 kts | 294° |
| 2026-05-06 23:12 | 1.33627 | 103.98465 | 25 ft | 0 kts | 302° |
| 2026-05-06 23:12 | 1.33643 | 103.98465 | 24 ft | 3 kts | 28° |
| 2026-05-06 23:12 | 1.33645 | 103.98496 | 23 ft | 7 kts | 85° |
| 2026-05-06 23:12 | 1.33643 | 103.98532 | 22 ft | 4 kts | 104° |
| 2026-05-06 23:13 | 1.33629 | 103.98579 | 25 ft | 10 kts | 107° |
| 2026-05-06 23:13 | 1.33585 | 103.98607 | 22 ft | 9 kts | 185° |
| 2026-05-06 23:13 | 1.33519 | 103.98571 | 22 ft | 14 kts | 221° |
| 2026-05-06 23:13 | 1.33428 | 103.98527 | 22 ft | 13 kts | 200° |
| 2026-05-06 23:14 | 1.33337 | 103.98496 | 22 ft | 13 kts | 199° |
| 2026-05-06 23:14 | 1.33255 | 103.98463 | 22 ft | 12 kts | 202° |
| 2026-05-06 23:14 | 1.33168 | 103.98426 | 25 ft | 15 kts | 207° |
| 2026-05-06 23:14 | 1.33071 | 103.98382 | 22 ft | 15 kts | 203° |
| 2026-05-06 23:15 | 1.32997 | 103.98356 | 22 ft | 9 kts | 186° |
| 2026-05-06 23:15 | 1.32951 | 103.98373 | 23 ft | 6 kts | 135° |
| 2026-05-06 23:15 | 1.32937 | 103.98393 | 22 ft | 0 kts | 118° |
| 2026-05-06 23:17 | 1.32925 | 103.98417 | 22 ft | 8 kts | 114° |
| 2026-05-06 23:17 | 1.32905 | 103.98473 | 22 ft | 9 kts | 103° |
| 2026-05-06 23:17 | 1.32933 | 103.98519 | 22 ft | 7 kts | 25° |
| 2026-05-06 23:18 | 1.32935 | 103.98519 | 22 ft | 0 kts | 21° |
| 2026-05-06 23:18 | 1.32989 | 103.98540 | 24 ft | 41 kts | 21° |
| 2026-05-06 23:19 | 1.33560 | 103.98761 | 23 ft | 131 kts | 22° |
| 2026-05-06 23:19 | 1.34530 | 103.99187 | 447 ft | 160 kts | 28° |
| 2026-05-06 23:19 | 1.35546 | 103.99724 | 1202 ft | 171 kts | 25° |
| 2026-05-06 23:19 | 1.36717 | 104.00227 | 1865 ft | 196 kts | 23° |
| 2026-05-06 23:20 | 1.38004 | 104.00749 | 2383 ft | 200 kts | 22° |
| 2026-05-06 23:20 | 1.39358 | 104.01298 | 2642 ft | 222 kts | 22° |
| 2026-05-06 23:20 | 1.40866 | 104.01914 | 3030 ft | 246 kts | 22° |
| 2026-05-06 23:20 | 1.42521 | 104.02598 | 3485 ft | 267 kts | 23° |
| 2026-05-06 23:21 | 1.44257 | 104.03321 | 4260 ft | 273 kts | 23° |
| 2026-05-06 23:21 | 1.46027 | 104.04061 | 5100 ft | 277 kts | 23° |
| 2026-05-06 23:21 | 1.47874 | 104.04648 | 5919 ft | 282 kts | 9° |
| 2026-05-06 23:21 | 1.49815 | 104.04672 | 6698 ft | 285 kts | 351° |
| 2026-05-06 23:22 | 1.51721 | 104.04094 | 7474 ft | 289 kts | 334° |
| 2026-05-06 23:22 | 1.53503 | 104.03140 | 8268 ft | 292 kts | 332° |
| 2026-05-06 23:22 | 1.55294 | 104.02166 | 9050 ft | 295 kts | 332° |
| 2026-05-06 23:22 | 1.57112 | 104.01180 | 9831 ft | 299 kts | 332° |
| 2026-05-06 23:23 | 1.58961 | 104.00182 | 10329 ft | 312 kts | 332° |
| 2026-05-06 23:23 | 1.60939 | 103.99117 | 10525 ft | 334 kts | 332° |
| 2026-05-06 23:23 | 1.63019 | 103.97997 | 10991 ft | 344 kts | 333° |
| 2026-05-06 23:23 | 1.65145 | 103.96853 | 11622 ft | 349 kts | 333° |
| 2026-05-06 23:24 | 1.67293 | 103.95697 | 12273 ft | 353 kts | 333° |
| 2026-05-06 23:24 | 1.69465 | 103.94524 | 12913 ft | 356 kts | 333° |
| 2026-05-06 23:24 | 1.71646 | 103.93315 | 13546 ft | 361 kts | 329° |
| 2026-05-06 23:24 | 1.73603 | 103.91713 | 14111 ft | 367 kts | 314° |
| 2026-05-06 23:25 | 1.75130 | 103.89658 | 14676 ft | 372 kts | 300° |
| 2026-05-06 23:25 | 1.76128 | 103.87267 | 15217 ft | 376 kts | 285° |
| 2026-05-06 23:25 | 1.76598 | 103.84687 | 15771 ft | 379 kts | 279° |
| 2026-05-06 23:25 | 1.76989 | 103.82064 | 16321 ft | 382 kts | 279° |
| 2026-05-06 23:26 | 1.77386 | 103.79422 | 16854 ft | 385 kts | 279° |
| 2026-05-06 23:26 | 1.77786 | 103.76765 | 17393 ft | 388 kts | 279° |
| 2026-05-06 23:26 | 1.78190 | 103.74085 | 17919 ft | 391 kts | 279° |
| 2026-05-06 23:26 | 1.78597 | 103.71385 | 18392 ft | 395 kts | 279° |
| 2026-05-06 23:27 | 1.79001 | 103.68697 | 18841 ft | 397 kts | 279° |
| 2026-05-06 23:27 | 1.79402 | 103.65953 | 19292 ft | 400 kts | 278° |
| 2026-05-06 23:27 | 1.79797 | 103.63194 | 19745 ft | 403 kts | 278° |
| 2026-05-06 23:27 | 1.80193 | 103.60403 | 20194 ft | 406 kts | 278° |
| 2026-05-06 23:28 | 1.80591 | 103.57598 | 20644 ft | 409 kts | 278° |
| 2026-05-06 23:28 | 1.80996 | 103.54768 | 21093 ft | 412 kts | 278° |
| 2026-05-06 23:28 | 1.81404 | 103.51926 | 21541 ft | 415 kts | 278° |
| 2026-05-06 23:28 | 1.81815 | 103.49066 | 21984 ft | 418 kts | 278° |
| 2026-05-06 23:29 | 1.82232 | 103.46177 | 22422 ft | 421 kts | 278° |
| 2026-05-06 23:29 | 1.82650 | 103.43276 | 22859 ft | 423 kts | 278° |
| 2026-05-06 23:29 | 1.83071 | 103.40350 | 23286 ft | 426 kts | 278° |
| 2026-05-06 23:29 | 1.83493 | 103.37405 | 23655 ft | 429 kts | 278° |
| 2026-05-06 23:30 | 1.83918 | 103.34447 | 24000 ft | 431 kts | 278° |
| 2026-05-06 23:30 | 1.84349 | 103.31469 | 24340 ft | 434 kts | 279° |
| 2026-05-06 23:30 | 1.85032 | 103.28530 | 24682 ft | 435 kts | 289° |
| 2026-05-06 23:30 | 1.86198 | 103.25734 | 25011 ft | 436 kts | 297° |
| 2026-05-06 23:31 | 1.87531 | 103.23044 | 25333 ft | 439 kts | 297° |
| 2026-05-06 23:31 | 1.88878 | 103.20306 | 25659 ft | 441 kts | 297° |
| 2026-05-06 23:31 | 1.90230 | 103.17548 | 25817 ft | 441 kts | 297° |
| 2026-05-06 23:31 | 1.91576 | 103.14793 | 25847 ft | 428 kts | 297° |
| 2026-05-06 23:32 | 1.92873 | 103.12139 | 25849 ft | 423 kts | 297° |
| 2026-05-06 23:32 | 1.94147 | 103.09538 | 25849 ft | 421 kts | 297° |
| 2026-05-06 23:32 | 1.95428 | 103.06924 | 25692 ft | 415 kts | 297° |
| 2026-05-06 23:32 | 1.96683 | 103.04359 | 25463 ft | 408 kts | 297° |
| 2026-05-06 23:33 | 1.97929 | 103.01816 | 25231 ft | 405 kts | 297° |
| 2026-05-06 23:33 | 1.99167 | 102.99293 | 25010 ft | 404 kts | 297° |
| 2026-05-06 23:33 | 2.00405 | 102.96773 | 24783 ft | 402 kts | 297° |
| 2026-05-06 23:33 | 2.01634 | 102.94268 | 24565 ft | 401 kts | 297° |
| 2026-05-06 23:34 | 2.02859 | 102.91768 | 24346 ft | 400 kts | 297° |
| 2026-05-06 23:34 | 2.04081 | 102.89278 | 24132 ft | 398 kts | 297° |
| 2026-05-06 23:34 | 2.05301 | 102.86793 | 23912 ft | 397 kts | 297° |
| 2026-05-06 23:34 | 2.06515 | 102.84315 | 23697 ft | 396 kts | 297° |
| 2026-05-06 23:35 | 2.07724 | 102.81844 | 23482 ft | 395 kts | 297° |
| 2026-05-06 23:35 | 2.08922 | 102.79383 | 23235 ft | 393 kts | 297° |
| 2026-05-06 23:35 | 2.10082 | 102.76996 | 22988 ft | 392 kts | 297° |
| 2026-05-06 23:35 | 2.11306 | 102.74480 | 22721 ft | 390 kts | 297° |
| 2026-05-06 23:36 | 2.12493 | 102.72044 | 22461 ft | 388 kts | 297° |
| 2026-05-06 23:36 | 2.13676 | 102.69620 | 22217 ft | 387 kts | 297° |
| 2026-05-06 23:36 | 2.14856 | 102.67209 | 21974 ft | 385 kts | 297° |
| 2026-05-06 23:36 | 2.15633 | 102.65620 | 21807 ft | 384 kts | 297° |
| 2026-05-06 23:37 | 2.16808 | 102.63233 | 21555 ft | 381 kts | 298° |
| 2026-05-06 23:37 | 2.18441 | 102.60125 | 21235 ft | 380 kts | 300° |
| 2026-05-06 23:37 | 2.19295 | 102.58566 | 21067 ft | 379 kts | 300° |
| 2026-05-06 23:37 | 2.20572 | 102.56269 | 20830 ft | 377 kts | 300° |
| 2026-05-06 23:38 | 2.21848 | 102.53978 | 20566 ft | 376 kts | 300° |
| 2026-05-06 23:38 | 2.23110 | 102.51700 | 20091 ft | 373 kts | 300° |
| 2026-05-06 23:38 | 2.24356 | 102.49434 | 19598 ft | 370 kts | 300° |
| 2026-05-06 23:38 | 2.25586 | 102.47188 | 19106 ft | 367 kts | 300° |
| 2026-05-06 23:39 | 2.26800 | 102.44957 | 18618 ft | 364 kts | 300° |
| 2026-05-06 23:39 | 2.28003 | 102.42741 | 18130 ft | 361 kts | 300° |
| 2026-05-06 23:39 | 2.29191 | 102.40549 | 17875 ft | 359 kts | 300° |
| 2026-05-06 23:39 | 2.30380 | 102.38362 | 17846 ft | 358 kts | 300° |
| 2026-05-06 23:40 | 2.31575 | 102.36166 | 17853 ft | 359 kts | 300° |
| 2026-05-06 23:40 | 2.32771 | 102.33967 | 17855 ft | 360 kts | 300° |
| 2026-05-06 23:40 | 2.33966 | 102.31772 | 17860 ft | 361 kts | 300° |
| 2026-05-06 23:40 | 2.35164 | 102.29569 | 17850 ft | 360 kts | 300° |
| 2026-05-06 23:41 | 2.36345 | 102.27394 | 17850 ft | 359 kts | 300° |
| 2026-05-06 23:41 | 2.37535 | 102.25200 | 17847 ft | 360 kts | 300° |
| 2026-05-06 23:41 | 2.38734 | 102.22998 | 17847 ft | 360 kts | 300° |
| 2026-05-06 23:41 | 2.39931 | 102.20804 | 17846 ft | 360 kts | 300° |
| 2026-05-06 23:42 | 2.41130 | 102.18605 | 17314 ft | 364 kts | 300° |
| 2026-05-06 23:42 | 2.42360 | 102.16346 | 16511 ft | 371 kts | 300° |
| 2026-05-06 23:42 | 2.43590 | 102.14085 | 15655 ft | 369 kts | 300° |
| 2026-05-06 23:42 | 2.44809 | 102.11842 | 14838 ft | 366 kts | 300° |
| 2026-05-06 23:43 | 2.46020 | 102.09621 | 14071 ft | 362 kts | 300° |
| 2026-05-06 23:43 | 2.47217 | 102.07421 | 13306 ft | 358 kts | 300° |
| 2026-05-06 23:43 | 2.48377 | 102.05284 | 12954 ft | 339 kts | 300° |
| 2026-05-06 23:43 | 2.49469 | 102.03264 | 12822 ft | 324 kts | 300° |
| 2026-05-06 23:44 | 2.50537 | 102.01293 | 12674 ft | 321 kts | 300° |
| 2026-05-06 23:44 | 2.51544 | 101.99314 | 11982 ft | 319 kts | 290° |
| 2026-05-06 23:44 | 2.51922 | 101.97153 | 11343 ft | 316 kts | 267° |
| 2026-05-06 23:44 | 2.51483 | 101.95027 | 10608 ft | 314 kts | 245° |
| 2026-05-06 23:45 | 2.50363 | 101.93155 | 9834 ft | 313 kts | 236° |
| 2026-05-06 23:45 | 2.49531 | 101.91163 | 9008 ft | 315 kts | 262° |
| 2026-05-06 23:45 | 2.49779 | 101.89011 | 8182 ft | 314 kts | 292° |
| 2026-05-06 23:45 | 2.51036 | 101.87269 | 7414 ft | 310 kts | 323° |
| 2026-05-06 23:46 | 2.52799 | 101.86154 | 7129 ft | 287 kts | 332° |
| 2026-05-06 23:46 | 2.54498 | 101.85257 | 6850 ft | 269 kts | 333° |
| 2026-05-06 23:46 | 2.56135 | 101.84389 | 6326 ft | 264 kts | 332° |
| 2026-05-06 23:46 | 2.57729 | 101.83486 | 5731 ft | 262 kts | 330° |
| 2026-05-06 23:47 | 2.59281 | 101.82549 | 5134 ft | 260 kts | 329° |
| 2026-05-06 23:47 | 2.60803 | 101.81584 | 4545 ft | 258 kts | 328° |
| 2026-05-06 23:47 | 2.62289 | 101.80613 | 4100 ft | 248 kts | 327° |
| 2026-05-06 23:47 | 2.63664 | 101.79699 | 4019 ft | 225 kts | 327° |
| 2026-05-06 23:48 | 2.64919 | 101.78857 | 4025 ft | 213 kts | 327° |
| 2026-05-06 23:48 | 2.66148 | 101.78034 | 4030 ft | 212 kts | 327° |
| 2026-05-06 23:48 | 2.67361 | 101.77221 | 4035 ft | 212 kts | 327° |
| 2026-05-06 23:48 | 2.68604 | 101.76388 | 4036 ft | 212 kts | 327° |
| 2026-05-06 23:49 | 2.69827 | 101.75568 | 4031 ft | 212 kts | 327° |
| 2026-05-06 23:49 | 2.71041 | 101.74754 | 4033 ft | 212 kts | 327° |
| 2026-05-06 23:49 | 2.72263 | 101.73934 | 4035 ft | 211 kts | 327° |
| 2026-05-06 23:49 | 2.73482 | 101.73117 | 4032 ft | 211 kts | 327° |
| 2026-05-06 23:50 | 2.74709 | 101.72294 | 3843 ft | 215 kts | 327° |
| 2026-05-06 23:50 | 2.77256 | 101.70571 | 2843 ft | 224 kts | 327° |
| 2026-05-06 23:50 | 2.78533 | 101.69700 | 2459 ft | 221 kts | 327° |
| 2026-05-06 23:51 | 2.79879 | 101.69046 | 2178 ft | 209 kts | 352° |
| 2026-05-06 23:51 | 2.81240 | 101.69181 | 1975 ft | 191 kts | 27° |
| 2026-05-06 23:51 | 2.82178 | 101.70021 | 1776 ft | 178 kts | 65° |
| 2026-05-06 23:51 | 2.82360 | 101.71147 | 1776 ft | 156 kts | 101° |
| 2026-05-06 23:52 | 2.81984 | 101.72104 | 1750 ft | 144 kts | 117° |
| 2026-05-06 23:52 | 2.81493 | 101.72967 | 1652 ft | 141 kts | 119° |
| 2026-05-06 23:52 | 2.80985 | 101.73795 | 1501 ft | 139 kts | 125° |
| 2026-05-06 23:52 | 2.80297 | 101.74456 | 1456 ft | 137 kts | 142° |
| 2026-05-06 23:53 | 2.79474 | 101.74956 | 1560 ft | 140 kts | 151° |
| 2026-05-06 23:53 | 2.78573 | 101.75340 | 1570 ft | 141 kts | 156° |
| 2026-05-06 23:53 | 2.77633 | 101.75664 | 1522 ft | 142 kts | 158° |
| 2026-05-06 23:53 | 2.76729 | 101.76006 | 1459 ft | 141 kts | 154° |
| 2026-05-06 23:54 | 2.75837 | 101.76412 | 1369 ft | 141 kts | 151° |
| 2026-05-06 23:54 | 2.74984 | 101.76891 | 1229 ft | 139 kts | 145° |
| 2026-05-06 23:54 | 2.74184 | 101.77419 | 1294 ft | 138 kts | 144° |
| 2026-05-06 23:54 | 2.73376 | 101.77962 | 1514 ft | 141 kts | 144° |
| 2026-05-06 23:55 | 2.72564 | 101.78515 | 1630 ft | 141 kts | 144° |
| 2026-05-06 23:55 | 2.71755 | 101.79065 | 1631 ft | 140 kts | 145° |
| 2026-05-06 23:55 | 2.70861 | 101.79444 | 1544 ft | 142 kts | 173° |
| 2026-05-06 23:55 | 2.69913 | 101.79185 | 1355 ft | 149 kts | 218° |
| 2026-05-06 23:56 | 2.69446 | 101.78297 | 1160 ft | 153 kts | 269° |
| 2026-05-06 23:56 | 2.69912 | 101.77315 | 1255 ft | 169 kts | 326° |
| 2026-05-06 23:56 | 2.71033 | 101.76756 | 1311 ft | 193 kts | 340° |
| 2026-05-06 23:56 | 2.72183 | 101.76134 | 1307 ft | 181 kts | 323° |
| 2026-05-06 23:57 | 2.72708 | 101.75083 | 1234 ft | 172 kts | 281° |
| 2026-05-06 23:57 | 2.73189 | 101.74046 | 1121 ft | 164 kts | 302° |
| 2026-05-06 23:57 | 2.73842 | 101.73101 | 702 ft | 165 kts | 310° |
| 2026-05-06 23:57 | 2.74671 | 101.72337 | 325 ft | 159 kts | 323° |
| 2026-05-06 23:58 | 2.75548 | 101.71733 | 98 ft | 144 kts | 326° |
| 2026-05-06 23:58 | 2.76311 | 101.71229 | 67 ft | 118 kts | 325° |
| 2026-05-06 23:58 | 2.76796 | 101.70893 | 69 ft | 22 kts | 326° |
| 2026-05-06 23:58 | 2.76848 | 101.70822 | 69 ft | 11 kts | 305° |
| 2026-05-06 23:59 | 2.76872 | 101.70785 | 69 ft | 2 kts | 302° |
| 2026-05-06 23:59 | 2.76874 | 101.70783 | 69 ft | 0 kts | 301° |
| 2026-05-06 23:59 | 2.76880 | 101.70772 | 65 ft | 5 kts | 300° |
| 2026-05-06 23:59 | 2.76907 | 101.70725 | 62 ft | 13 kts | 294° |
| 2026-05-07 00:00 | 2.76912 | 101.70640 | 60 ft | 17 kts | 236° |
| 2026-05-07 00:00 | 2.76785 | 101.70673 | 68 ft | 24 kts | 148° |
| 2026-05-07 00:00 | 2.76617 | 101.70784 | 65 ft | 34 kts | 144° |
| 2026-05-07 00:00 | 2.76498 | 101.70868 | 68 ft | 31 kts | 145° |
| 2026-05-07 00:01 | 2.76260 | 101.71023 | 67 ft | 24 kts | 149° |
| 2026-05-07 00:01 | 2.76088 | 101.71052 | 71 ft | 22 kts | 170° |
| 2026-05-07 00:01 | 2.75978 | 101.71102 | 71 ft | 20 kts | 151° |
| 2026-05-07 00:01 | 2.75881 | 101.71158 | 72 ft | 5 kts | 174° |
| 2026-05-07 00:02 | 2.75827 | 101.71118 | 72 ft | 15 kts | 270° |
| 2026-05-07 00:02 | 2.75770 | 101.71048 | 66 ft | 11 kts | 178° |
| 2026-05-07 00:02 | 2.75677 | 101.71084 | 66 ft | 19 kts | 148° |
| 2026-05-07 00:02 | 2.75582 | 101.71155 | 69 ft | 17 kts | 142° |
| 2026-05-07 00:03 | 2.75452 | 101.71249 | 69 ft | 29 kts | 144° |
| 2026-05-07 00:03 | 2.75329 | 101.71327 | 73 ft | 0 kts | 133° |
| 2026-05-07 00:03 | 2.75324 | 101.71336 | 73 ft | 6 kts | 114° |
| 2026-05-07 00:03 | 2.75343 | 101.71389 | 72 ft | 11 kts | 49° |
| 2026-05-07 00:04 | 2.75380 | 101.71479 | 71 ft | 17 kts | 102° |
| 2026-05-07 00:04 | 2.75298 | 101.71557 | 74 ft | 15 kts | 148° |
| 2026-05-07 00:04 | 2.75205 | 101.71615 | 71 ft | 15 kts | 160° |
| 2026-05-07 00:04 | 2.75125 | 101.71563 | 75 ft | 17 kts | 232° |
| 2026-05-07 00:05 | 2.75064 | 101.71495 | 71 ft | 8 kts | 201° |
| 2026-05-07 00:05 | 2.75010 | 101.71507 | 68 ft | 5 kts | 141° |
| 2026-05-07 00:05 | 2.74978 | 101.71529 | 72 ft | 0 kts | 146° |
| 2026-05-07 00:06 | 2.71179 | 101.76697 | 1298 ft | 192 kts | 340° |
| 2026-05-07 00:06 | 2.72301 | 101.76037 | 1312 ft | 179 kts | 320° |
| 2026-05-07 00:06 | 2.72740 | 101.74941 | 1215 ft | 172 kts | 285° |
| 2026-05-07 00:07 | 2.73269 | 101.73917 | 1057 ft | 164 kts | 302° |
| 2026-05-07 00:07 | 2.73943 | 101.72987 | 646 ft | 165 kts | 313° |
| 2026-05-07 00:07 | 2.74784 | 101.72253 | 271 ft | 158 kts | 323° |
| 2026-05-07 00:07 | 2.75660 | 101.71659 | 85 ft | 140 kts | 326° |
| 2026-05-07 00:08 | 2.76401 | 101.71166 | 66 ft | 116 kts | 324° |
| 2026-05-07 00:08 | 2.76809 | 101.70884 | 69 ft | 18 kts | 323° |
| 2026-05-07 00:08 | 2.70649 | 101.76919 | 1331 ft | 11 kts | 338° |
| 2026-05-07 00:08 | 2.71875 | 101.76355 | 1287 ft | 187 kts | 329° |
| 2026-05-07 00:09 | 2.72650 | 101.75431 | 1258 ft | 174 kts | 278° |
| 2026-05-07 00:09 | 2.73026 | 101.74318 | 1214 ft | 164 kts | 301° |
| 2026-05-07 00:09 | 2.73646 | 101.73351 | 809 ft | 166 kts | 307° |
| 2026-05-07 00:09 | 2.74426 | 101.72526 | 424 ft | 161 kts | 322° |
| 2026-05-07 00:10 | 2.75302 | 101.71895 | 140 ft | 150 kts | 326° |
| 2026-05-07 00:10 | 2.76117 | 101.71359 | 67 ft | 125 kts | 327° |
| 2026-05-07 00:10 | 2.76725 | 101.70941 | 63 ft | 63 kts | 326° |
| 2026-05-07 00:10 | 2.76908 | 101.70636 | 69 ft | 0 kts | 225° |
| 2026-05-07 00:11 | 2.76906 | 101.70635 | 67 ft | 0 kts | 225° |